sensor_id;sensor_type;location;lat;lon;timestamp;P1;durP1;ratioP1;P2;durP2;ratioP2
16531;SDS011;66872;63.142;14.482;2023-05-13T00:00:44;1.63;;;1.53;;
16531;SDS011;66872;63.142;14.482;2023-05-13T00:03:09;1.70;;;1.60;;
16531;SDS011;66872;63.142;14.482;2023-05-13T00:05:36;1.70;;;1.60;;
16531;SDS011;66872;63.142;14.482;2023-05-13T00:08:01;1.70;;;1.60;;
16531;SDS011;66872;63.142;14.482;2023-05-13T00:10:31;1.60;;;1.50;;
16531;SDS011;66872;63.142;14.482;2023-05-13T00:13:00;1.70;;;1.60;;
16531;SDS011;66872;63.142;14.482;2023-05-13T00:15:26;1.60;;;1.50;;
16531;SDS011;66872;63.142;14.482;2023-05-13T00:17:52;1.70;;;1.60;;
16531;SDS011;66872;63.142;14.482;2023-05-13T00:20:18;1.80;;;1.70;;
16531;SDS011;66872;63.142;14.482;2023-05-13T00:22:43;1.70;;;1.60;;
16531;SDS011;66872;63.142;14.482;2023-05-13T00:25:09;1.60;;;1.50;;
16531;SDS011;66872;63.142;14.482;2023-05-13T00:27:35;1.53;;;1.43;;
16531;SDS011;66872;63.142;14.482;2023-05-13T00:30:01;1.77;;;1.67;;
16531;SDS011;66872;63.142;14.482;2023-05-13T00:32:27;1.77;;;1.67;;
16531;SDS011;66872;63.142;14.482;2023-05-13T00:34:52;1.70;;;1.60;;
16531;SDS011;66872;63.142;14.482;2023-05-13T00:37:18;1.80;;;1.70;;
16531;SDS011;66872;63.142;14.482;2023-05-13T00:39:44;1.60;;;1.50;;
16531;SDS011;66872;63.142;14.482;2023-05-13T00:42:09;1.13;;;1.10;;
16531;SDS011;66872;63.142;14.482;2023-05-13T00:44:36;1.80;;;1.70;;
16531;SDS011;66872;63.142;14.482;2023-05-13T00:47:03;1.60;;;1.50;;
16531;SDS011;66872;63.142;14.482;2023-05-13T00:49:32;1.50;;;1.40;;
16531;SDS011;66872;63.142;14.482;2023-05-13T00:51:58;1.70;;;1.60;;
16531;SDS011;66872;63.142;14.482;2023-05-13T00:54:23;1.60;;;1.50;;
16531;SDS011;66872;63.142;14.482;2023-05-13T00:56:49;1.60;;;1.50;;
16531;SDS011;66872;63.142;14.482;2023-05-13T00:59:18;1.70;;;1.60;;
16531;SDS011;66872;63.142;14.482;2023-05-13T01:02:47;1.50;;;1.40;;
16531;SDS011;66872;63.142;14.482;2023-05-13T01:07:39;1.77;;;1.67;;
16531;SDS011;66872;63.142;14.482;2023-05-13T01:12:45;1.60;;;1.50;;
16531;SDS011;66872;63.142;14.482;2023-05-13T01:15:12;1.67;;;1.57;;
16531;SDS011;66872;63.142;14.482;2023-05-13T01:17:45;1.70;;;1.60;;
16531;SDS011;66872;63.142;14.482;2023-05-13T01:20:20;1.47;;;1.37;;
16531;SDS011;66872;63.142;14.482;2023-05-13T01:22:46;1.60;;;1.50;;
16531;SDS011;66872;63.142;14.482;2023-05-13T01:25:12;1.70;;;1.60;;
16531;SDS011;66872;63.142;14.482;2023-05-13T01:27:38;1.63;;;1.53;;
16531;SDS011;66872;63.142;14.482;2023-05-13T01:30:04;1.60;;;1.50;;
16531;SDS011;66872;63.142;14.482;2023-05-13T01:32:32;1.57;;;1.47;;
16531;SDS011;66872;63.142;14.482;2023-05-13T01:34:59;1.50;;;1.40;;
16531;SDS011;66872;63.142;14.482;2023-05-13T01:37:27;1.57;;;1.47;;
16531;SDS011;66872;63.142;14.482;2023-05-13T01:39:54;1.77;;;1.67;;
16531;SDS011;66872;63.142;14.482;2023-05-13T01:42:21;1.50;;;1.40;;
16531;SDS011;66872;63.142;14.482;2023-05-13T01:44:47;1.50;;;1.40;;
16531;SDS011;66872;63.142;14.482;2023-05-13T01:47:15;1.63;;;1.53;;
16531;SDS011;66872;63.142;14.482;2023-05-13T01:49:40;1.60;;;1.50;;
16531;SDS011;66872;63.142;14.482;2023-05-13T01:52:06;1.40;;;1.30;;
16531;SDS011;66872;63.142;14.482;2023-05-13T01:54:32;1.70;;;1.60;;
16531;SDS011;66872;63.142;14.482;2023-05-13T01:56:57;1.70;;;1.60;;
16531;SDS011;66872;63.142;14.482;2023-05-13T01:59:23;1.60;;;1.50;;
16531;SDS011;66872;63.142;14.482;2023-05-13T02:01:49;1.60;;;1.50;;
16531;SDS011;66872;63.142;14.482;2023-05-13T02:04:14;1.50;;;1.40;;
16531;SDS011;66872;63.142;14.482;2023-05-13T02:06:40;1.90;;;1.80;;
16531;SDS011;66872;63.142;14.482;2023-05-13T02:09:06;1.63;;;1.53;;
16531;SDS011;66872;63.142;14.482;2023-05-13T02:11:32;1.80;;;1.70;;
16531;SDS011;66872;63.142;14.482;2023-05-13T02:13:58;1.77;;;1.67;;
16531;SDS011;66872;63.142;14.482;2023-05-13T02:16:23;1.60;;;1.50;;
16531;SDS011;66872;63.142;14.482;2023-05-13T02:18:49;1.53;;;1.43;;
16531;SDS011;66872;63.142;14.482;2023-05-13T02:21:15;1.70;;;1.60;;
16531;SDS011;66872;63.142;14.482;2023-05-13T02:23:41;1.50;;;1.40;;
16531;SDS011;66872;63.142;14.482;2023-05-13T02:26:06;1.50;;;1.40;;
16531;SDS011;66872;63.142;14.482;2023-05-13T02:28:32;1.73;;;1.63;;
16531;SDS011;66872;63.142;14.482;2023-05-13T02:30:58;1.77;;;1.67;;
16531;SDS011;66872;63.142;14.482;2023-05-13T02:33:23;1.57;;;1.47;;
16531;SDS011;66872;63.142;14.482;2023-05-13T02:35:49;1.63;;;1.53;;
16531;SDS011;66872;63.142;14.482;2023-05-13T02:38:15;1.53;;;1.43;;
16531;SDS011;66872;63.142;14.482;2023-05-13T02:40:40;1.60;;;1.50;;
16531;SDS011;66872;63.142;14.482;2023-05-13T02:43:06;1.60;;;1.50;;
16531;SDS011;66872;63.142;14.482;2023-05-13T02:45:32;1.77;;;1.67;;
16531;SDS011;66872;63.142;14.482;2023-05-13T02:47:58;1.60;;;1.50;;
16531;SDS011;66872;63.142;14.482;2023-05-13T02:50:23;1.70;;;1.60;;
16531;SDS011;66872;63.142;14.482;2023-05-13T02:52:49;1.60;;;1.50;;
16531;SDS011;66872;63.142;14.482;2023-05-13T02:55:15;1.70;;;1.60;;
16531;SDS011;66872;63.142;14.482;2023-05-13T02:57:41;1.50;;;1.40;;
16531;SDS011;66872;63.142;14.482;2023-05-13T03:00:07;1.67;;;1.57;;
16531;SDS011;66872;63.142;14.482;2023-05-13T03:02:35;1.80;;;1.70;;
16531;SDS011;66872;63.142;14.482;2023-05-13T03:05:01;1.50;;;1.40;;
16531;SDS011;66872;63.142;14.482;2023-05-13T03:07:27;1.70;;;1.60;;
16531;SDS011;66872;63.142;14.482;2023-05-13T03:09:52;1.40;;;1.30;;
16531;SDS011;66872;63.142;14.482;2023-05-13T03:12:18;1.40;;;1.30;;
16531;SDS011;66872;63.142;14.482;2023-05-13T03:14:44;1.60;;;1.50;;
16531;SDS011;66872;63.142;14.482;2023-05-13T03:17:10;1.70;;;1.60;;
16531;SDS011;66872;63.142;14.482;2023-05-13T03:19:36;1.50;;;1.40;;
16531;SDS011;66872;63.142;14.482;2023-05-13T03:22:02;1.60;;;1.50;;
16531;SDS011;66872;63.142;14.482;2023-05-13T03:24:28;1.53;;;1.43;;
16531;SDS011;66872;63.142;14.482;2023-05-13T03:26:54;1.70;;;1.60;;
16531;SDS011;66872;63.142;14.482;2023-05-13T03:29:21;1.80;;;1.70;;
16531;SDS011;66872;63.142;14.482;2023-05-13T03:31:47;1.40;;;1.30;;
16531;SDS011;66872;63.142;14.482;2023-05-13T03:34:13;1.70;;;1.60;;
16531;SDS011;66872;63.142;14.482;2023-05-13T03:36:39;1.53;;;1.43;;
16531;SDS011;66872;63.142;14.482;2023-05-13T03:39:04;1.50;;;1.40;;
16531;SDS011;66872;63.142;14.482;2023-05-13T03:41:30;1.50;;;1.40;;
16531;SDS011;66872;63.142;14.482;2023-05-13T03:43:56;1.50;;;1.40;;
16531;SDS011;66872;63.142;14.482;2023-05-13T03:46:21;1.50;;;1.40;;
16531;SDS011;66872;63.142;14.482;2023-05-13T03:48:47;2.37;;;1.60;;
16531;SDS011;66872;63.142;14.482;2023-05-13T03:51:13;1.50;;;1.40;;
16531;SDS011;66872;63.142;14.482;2023-05-13T03:53:40;2.00;;;1.40;;
16531;SDS011;66872;63.142;14.482;2023-05-13T03:56:06;1.73;;;1.40;;
16531;SDS011;66872;63.142;14.482;2023-05-13T03:58:31;1.70;;;1.60;;
16531;SDS011;66872;63.142;14.482;2023-05-13T04:00:57;1.73;;;1.63;;
16531;SDS011;66872;63.142;14.482;2023-05-13T04:03:23;1.53;;;1.43;;
16531;SDS011;66872;63.142;14.482;2023-05-13T04:05:49;1.53;;;1.43;;
16531;SDS011;66872;63.142;14.482;2023-05-13T04:08:15;1.53;;;1.43;;
16531;SDS011;66872;63.142;14.482;2023-05-13T04:10:41;1.67;;;1.57;;
16531;SDS011;66872;63.142;14.482;2023-05-13T04:13:07;1.60;;;1.50;;
16531;SDS011;66872;63.142;14.482;2023-05-13T04:15:33;1.50;;;1.40;;
16531;SDS011;66872;63.142;14.482;2023-05-13T04:17:58;1.70;;;1.60;;
16531;SDS011;66872;63.142;14.482;2023-05-13T04:20:24;1.57;;;1.47;;
16531;SDS011;66872;63.142;14.482;2023-05-13T04:22:50;1.50;;;1.40;;
16531;SDS011;66872;63.142;14.482;2023-05-13T04:25:16;1.50;;;1.40;;
16531;SDS011;66872;63.142;14.482;2023-05-13T04:27:42;1.50;;;1.40;;
16531;SDS011;66872;63.142;14.482;2023-05-13T04:30:08;1.40;;;1.30;;
16531;SDS011;66872;63.142;14.482;2023-05-13T04:32:34;1.40;;;1.30;;
16531;SDS011;66872;63.142;14.482;2023-05-13T04:35:00;1.40;;;1.30;;
16531;SDS011;66872;63.142;14.482;2023-05-13T04:37:25;1.30;;;1.20;;
16531;SDS011;66872;63.142;14.482;2023-05-13T04:39:51;1.30;;;1.20;;
16531;SDS011;66872;63.142;14.482;2023-05-13T04:42:17;1.67;;;1.57;;
16531;SDS011;66872;63.142;14.482;2023-05-13T04:44:43;1.50;;;1.40;;
16531;SDS011;66872;63.142;14.482;2023-05-13T04:47:08;1.53;;;1.43;;
16531;SDS011;66872;63.142;14.482;2023-05-13T04:49:34;1.50;;;1.40;;
16531;SDS011;66872;63.142;14.482;2023-05-13T04:52:01;1.60;;;1.20;;
16531;SDS011;66872;63.142;14.482;2023-05-13T04:54:27;1.70;;;1.60;;
16531;SDS011;66872;63.142;14.482;2023-05-13T04:56:53;1.50;;;1.40;;
16531;SDS011;66872;63.142;14.482;2023-05-13T04:59:19;1.50;;;1.40;;
16531;SDS011;66872;63.142;14.482;2023-05-13T05:01:45;1.60;;;1.50;;
16531;SDS011;66872;63.142;14.482;2023-05-13T05:04:11;1.60;;;1.50;;
16531;SDS011;66872;63.142;14.482;2023-05-13T05:06:37;1.47;;;1.37;;
16531;SDS011;66872;63.142;14.482;2023-05-13T05:09:03;1.60;;;1.50;;
16531;SDS011;66872;63.142;14.482;2023-05-13T05:11:28;1.50;;;1.40;;
16531;SDS011;66872;63.142;14.482;2023-05-13T05:13:54;1.50;;;1.40;;
16531;SDS011;66872;63.142;14.482;2023-05-13T05:16:20;1.60;;;1.50;;
16531;SDS011;66872;63.142;14.482;2023-05-13T05:18:46;1.60;;;1.50;;
16531;SDS011;66872;63.142;14.482;2023-05-13T05:21:11;1.43;;;1.33;;
16531;SDS011;66872;63.142;14.482;2023-05-13T05:23:37;1.53;;;1.43;;
16531;SDS011;66872;63.142;14.482;2023-05-13T05:26:03;1.40;;;1.30;;
16531;SDS011;66872;63.142;14.482;2023-05-13T05:28:29;1.40;;;1.30;;
16531;SDS011;66872;63.142;14.482;2023-05-13T05:30:55;1.80;;;1.70;;
16531;SDS011;66872;63.142;14.482;2023-05-13T05:33:21;1.43;;;1.33;;
16531;SDS011;66872;63.142;14.482;2023-05-13T05:35:47;1.50;;;1.40;;
16531;SDS011;66872;63.142;14.482;2023-05-13T05:38:13;1.40;;;1.30;;
16531;SDS011;66872;63.142;14.482;2023-05-13T05:40:41;1.40;;;1.30;;
16531;SDS011;66872;63.142;14.482;2023-05-13T05:43:07;1.50;;;1.40;;
16531;SDS011;66872;63.142;14.482;2023-05-13T05:45:35;1.40;;;1.30;;
16531;SDS011;66872;63.142;14.482;2023-05-13T05:48:01;1.57;;;1.47;;
16531;SDS011;66872;63.142;14.482;2023-05-13T05:50:27;1.20;;;1.20;;
16531;SDS011;66872;63.142;14.482;2023-05-13T05:52:53;1.50;;;1.40;;
16531;SDS011;66872;63.142;14.482;2023-05-13T05:55:19;1.50;;;1.40;;
16531;SDS011;66872;63.142;14.482;2023-05-13T05:57:45;1.60;;;1.50;;
16531;SDS011;66872;63.142;14.482;2023-05-13T06:00:11;1.60;;;1.50;;
16531;SDS011;66872;63.142;14.482;2023-05-13T06:02:37;1.53;;;1.43;;
16531;SDS011;66872;63.142;14.482;2023-05-13T06:05:04;1.50;;;1.40;;
16531;SDS011;66872;63.142;14.482;2023-05-13T06:07:30;1.50;;;1.40;;
16531;SDS011;66872;63.142;14.482;2023-05-13T06:09:56;1.50;;;1.40;;
16531;SDS011;66872;63.142;14.482;2023-05-13T06:12:21;1.53;;;1.43;;
16531;SDS011;66872;63.142;14.482;2023-05-13T06:14:47;1.50;;;1.40;;
16531;SDS011;66872;63.142;14.482;2023-05-13T06:17:13;1.50;;;1.40;;
16531;SDS011;66872;63.142;14.482;2023-05-13T06:19:42;1.50;;;1.40;;
16531;SDS011;66872;63.142;14.482;2023-05-13T06:22:08;1.50;;;1.40;;
16531;SDS011;66872;63.142;14.482;2023-05-13T06:24:34;1.30;;;1.20;;
16531;SDS011;66872;63.142;14.482;2023-05-13T06:27:00;1.40;;;1.30;;
16531;SDS011;66872;63.142;14.482;2023-05-13T06:29:26;1.60;;;1.50;;
16531;SDS011;66872;63.142;14.482;2023-05-13T06:31:52;1.40;;;1.30;;
16531;SDS011;66872;63.142;14.482;2023-05-13T06:34:18;1.60;;;1.20;;
16531;SDS011;66872;63.142;14.482;2023-05-13T06:36:44;1.67;;;1.57;;
16531;SDS011;66872;63.142;14.482;2023-05-13T06:39:10;1.40;;;1.30;;
16531;SDS011;66872;63.142;14.482;2023-05-13T06:41:37;1.40;;;1.30;;
16531;SDS011;66872;63.142;14.482;2023-05-13T06:44:03;1.40;;;1.30;;
16531;SDS011;66872;63.142;14.482;2023-05-13T06:46:30;1.40;;;1.30;;
16531;SDS011;66872;63.142;14.482;2023-05-13T06:48:56;1.40;;;1.30;;
16531;SDS011;66872;63.142;14.482;2023-05-13T06:51:23;1.27;;;1.17;;
16531;SDS011;66872;63.142;14.482;2023-05-13T06:53:51;1.50;;;1.40;;
16531;SDS011;66872;63.142;14.482;2023-05-13T06:56:17;1.30;;;1.20;;
16531;SDS011;66872;63.142;14.482;2023-05-13T06:58:43;1.10;;;1.10;;
16531;SDS011;66872;63.142;14.482;2023-05-13T07:01:09;1.50;;;1.40;;
16531;SDS011;66872;63.142;14.482;2023-05-13T07:03:35;1.40;;;1.30;;
16531;SDS011;66872;63.142;14.482;2023-05-13T07:06:01;1.60;;;1.50;;
16531;SDS011;66872;63.142;14.482;2023-05-13T07:08:28;1.40;;;1.30;;
16531;SDS011;66872;63.142;14.482;2023-05-13T07:10:53;1.50;;;1.40;;
16531;SDS011;66872;63.142;14.482;2023-05-13T07:13:19;1.40;;;1.30;;
16531;SDS011;66872;63.142;14.482;2023-05-13T07:15:46;1.40;;;1.30;;
16531;SDS011;66872;63.142;14.482;2023-05-13T07:18:12;1.23;;;1.15;;
16531;SDS011;66872;63.142;14.482;2023-05-13T07:20:37;1.47;;;1.37;;
16531;SDS011;66872;63.142;14.482;2023-05-13T07:23:03;1.40;;;1.30;;
16531;SDS011;66872;63.142;14.482;2023-05-13T07:25:29;1.50;;;1.40;;
16531;SDS011;66872;63.142;14.482;2023-05-13T07:27:54;1.40;;;1.30;;
16531;SDS011;66872;63.142;14.482;2023-05-13T07:30:20;1.30;;;1.20;;
16531;SDS011;66872;63.142;14.482;2023-05-13T07:32:46;1.60;;;1.50;;
16531;SDS011;66872;63.142;14.482;2023-05-13T07:35:12;1.60;;;1.50;;
16531;SDS011;66872;63.142;14.482;2023-05-13T07:37:38;1.42;;;1.33;;
16531;SDS011;66872;63.142;14.482;2023-05-13T07:40:04;1.45;;;1.35;;
16531;SDS011;66872;63.142;14.482;2023-05-13T07:42:30;1.30;;;1.20;;
16531;SDS011;66872;63.142;14.482;2023-05-13T07:44:56;1.50;;;1.40;;
16531;SDS011;66872;63.142;14.482;2023-05-13T07:47:22;1.40;;;1.30;;
16531;SDS011;66872;63.142;14.482;2023-05-13T07:49:48;1.35;;;1.25;;
16531;SDS011;66872;63.142;14.482;2023-05-13T07:52:14;2.03;;;1.50;;
16531;SDS011;66872;63.142;14.482;2023-05-13T07:54:40;1.75;;;1.60;;
16531;SDS011;66872;63.142;14.482;2023-05-13T07:57:06;2.30;;;1.30;;
16531;SDS011;66872;63.142;14.482;2023-05-13T07:59:32;1.70;;;1.60;;
16531;SDS011;66872;63.142;14.482;2023-05-13T08:01:57;1.70;;;1.50;;
16531;SDS011;66872;63.142;14.482;2023-05-13T08:04:23;2.10;;;1.48;;
16531;SDS011;66872;63.142;14.482;2023-05-13T08:06:49;2.53;;;1.50;;
16531;SDS011;66872;63.142;14.482;2023-05-13T08:09:14;1.83;;;1.55;;
16531;SDS011;66872;63.142;14.482;2023-05-13T08:11:40;1.58;;;1.30;;
16531;SDS011;66872;63.142;14.482;2023-05-13T08:14:06;3.53;;;1.40;;
16531;SDS011;66872;63.142;14.482;2023-05-13T08:16:34;1.98;;;1.30;;
16531;SDS011;66872;63.142;14.482;2023-05-13T08:19:01;1.60;;;1.50;;
16531;SDS011;66872;63.142;14.482;2023-05-13T08:21:26;2.33;;;1.40;;
16531;SDS011;66872;63.142;14.482;2023-05-13T08:23:52;1.50;;;1.40;;
16531;SDS011;66872;63.142;14.482;2023-05-13T08:26:19;2.08;;;1.40;;
16531;SDS011;66872;63.142;14.482;2023-05-13T08:28:45;1.70;;;1.60;;
16531;SDS011;66872;63.142;14.482;2023-05-13T08:31:10;1.60;;;1.50;;
16531;SDS011;66872;63.142;14.482;2023-05-13T08:33:36;1.52;;;1.35;;
16531;SDS011;66872;63.142;14.482;2023-05-13T08:36:02;1.58;;;1.48;;
16531;SDS011;66872;63.142;14.482;2023-05-13T08:38:28;1.60;;;1.50;;
16531;SDS011;66872;63.142;14.482;2023-05-13T08:40:54;1.50;;;1.40;;
16531;SDS011;66872;63.142;14.482;2023-05-13T08:43:19;1.63;;;1.38;;
16531;SDS011;66872;63.142;14.482;2023-05-13T08:45:47;2.20;;;1.50;;
16531;SDS011;66872;63.142;14.482;2023-05-13T08:48:17;1.60;;;1.50;;
16531;SDS011;66872;63.142;14.482;2023-05-13T08:50:44;2.42;;;1.73;;
16531;SDS011;66872;63.142;14.482;2023-05-13T08:53:11;1.60;;;1.50;;
16531;SDS011;66872;63.142;14.482;2023-05-13T08:55:37;1.42;;;1.33;;
16531;SDS011;66872;63.142;14.482;2023-05-13T08:58:04;1.60;;;1.50;;
16531;SDS011;66872;63.142;14.482;2023-05-13T09:00:31;1.48;;;1.38;;
16531;SDS011;66872;63.142;14.482;2023-05-13T09:02:58;1.40;;;1.30;;
16531;SDS011;66872;63.142;14.482;2023-05-13T09:05:24;1.70;;;1.60;;
16531;SDS011;66872;63.142;14.482;2023-05-13T09:07:50;1.60;;;1.50;;
16531;SDS011;66872;63.142;14.482;2023-05-13T09:10:17;1.50;;;1.40;;
16531;SDS011;66872;63.142;14.482;2023-05-13T09:12:45;1.45;;;1.35;;
16531;SDS011;66872;63.142;14.482;2023-05-13T09:15:19;2.30;;;1.25;;
16531;SDS011;66872;63.142;14.482;2023-05-13T09:18:00;2.20;;;1.40;;
16531;SDS011;66872;63.142;14.482;2023-05-13T09:20:27;1.60;;;1.50;;
16531;SDS011;66872;63.142;14.482;2023-05-13T09:25:23;1.52;;;1.42;;
16531;SDS011;66872;63.142;14.482;2023-05-13T09:27:59;1.35;;;1.25;;
16531;SDS011;66872;63.142;14.482;2023-05-13T09:30:27;1.63;;;1.27;;
16531;SDS011;66872;63.142;14.482;2023-05-13T09:35:37;1.58;;;1.48;;
16531;SDS011;66872;63.142;14.482;2023-05-13T09:38:11;1.40;;;1.30;;
16531;SDS011;66872;63.142;14.482;2023-05-13T09:40:38;1.50;;;1.40;;
16531;SDS011;66872;63.142;14.482;2023-05-13T09:43:05;1.40;;;1.27;;
16531;SDS011;66872;63.142;14.482;2023-05-13T09:45:33;1.70;;;1.60;;
16531;SDS011;66872;63.142;14.482;2023-05-13T09:48:00;1.27;;;1.20;;
16531;SDS011;66872;63.142;14.482;2023-05-13T09:50:26;1.50;;;1.40;;
16531;SDS011;66872;63.142;14.482;2023-05-13T09:52:52;1.70;;;1.60;;
16531;SDS011;66872;63.142;14.482;2023-05-13T09:55:17;1.52;;;1.42;;
16531;SDS011;66872;63.142;14.482;2023-05-13T09:57:44;1.40;;;1.30;;
16531;SDS011;66872;63.142;14.482;2023-05-13T10:00:10;1.60;;;1.50;;
16531;SDS011;66872;63.142;14.482;2023-05-13T10:02:36;1.40;;;1.30;;
16531;SDS011;66872;63.142;14.482;2023-05-13T10:05:03;1.48;;;1.38;;
16531;SDS011;66872;63.142;14.482;2023-05-13T10:07:32;1.50;;;1.40;;
16531;SDS011;66872;63.142;14.482;2023-05-13T10:10:02;1.30;;;1.20;;
16531;SDS011;66872;63.142;14.482;2023-05-13T10:12:29;1.50;;;1.40;;
16531;SDS011;66872;63.142;14.482;2023-05-13T10:14:56;1.40;;;1.30;;
16531;SDS011;66872;63.142;14.482;2023-05-13T10:17:23;1.50;;;1.40;;
16531;SDS011;66872;63.142;14.482;2023-05-13T10:19:50;1.50;;;1.40;;
16531;SDS011;66872;63.142;14.482;2023-05-13T10:22:50;1.40;;;1.30;;
16531;SDS011;66872;63.142;14.482;2023-05-13T10:25:09;1.58;;;1.30;;
16531;SDS011;66872;63.142;14.482;2023-05-13T10:27:35;1.27;;;1.20;;
16531;SDS011;66872;63.142;14.482;2023-05-13T10:30:03;1.40;;;1.30;;
16531;SDS011;66872;63.142;14.482;2023-05-13T10:32:33;1.40;;;1.30;;
16531;SDS011;66872;63.142;14.482;2023-05-13T10:35:05;1.23;;;1.13;;
16531;SDS011;66872;63.142;14.482;2023-05-13T10:37:46;1.40;;;1.30;;
16531;SDS011;66872;63.142;14.482;2023-05-13T10:42:45;1.25;;;1.15;;
16531;SDS011;66872;63.142;14.482;2023-05-13T10:45:18;1.40;;;1.30;;
16531;SDS011;66872;63.142;14.482;2023-05-13T10:47:47;1.30;;;1.20;;
16531;SDS011;66872;63.142;14.482;2023-05-13T10:50:24;1.30;;;1.20;;
16531;SDS011;66872;63.142;14.482;2023-05-13T10:52:53;1.40;;;1.30;;
16531;SDS011;66872;63.142;14.482;2023-05-13T10:55:21;1.50;;;1.40;;
16531;SDS011;66872;63.142;14.482;2023-05-13T10:58:02;1.30;;;1.20;;
16531;SDS011;66872;63.142;14.482;2023-05-13T11:00:36;1.50;;;1.40;;
16531;SDS011;66872;63.142;14.482;2023-05-13T11:05:44;1.40;;;1.30;;
16531;SDS011;66872;63.142;14.482;2023-05-13T11:11:08;1.70;;;1.60;;
16531;SDS011;66872;63.142;14.482;2023-05-13T11:14:32;1.35;;;1.25;;
16531;SDS011;66872;63.142;14.482;2023-05-13T11:16:41;1.57;;;1.47;;
16531;SDS011;66872;63.142;14.482;2023-05-13T11:19:36;1.53;;;1.43;;
16531;SDS011;66872;63.142;14.482;2023-05-13T11:22:04;1.60;;;1.47;;
16531;SDS011;66872;63.142;14.482;2023-05-13T11:24:43;1.57;;;1.30;;
16531;SDS011;66872;63.142;14.482;2023-05-13T11:27:16;1.40;;;1.30;;
16531;SDS011;66872;63.142;14.482;2023-05-13T11:35:21;1.50;;;1.40;;
16531;SDS011;66872;63.142;14.482;2023-05-13T11:37:48;1.87;;;1.40;;
16531;SDS011;66872;63.142;14.482;2023-05-13T11:40:21;1.43;;;1.33;;
16531;SDS011;66872;63.142;14.482;2023-05-13T11:42:47;1.40;;;1.30;;
16531;SDS011;66872;63.142;14.482;2023-05-13T11:45:12;1.30;;;1.20;;
16531;SDS011;66872;63.142;14.482;2023-05-13T11:47:38;1.60;;;1.50;;
16531;SDS011;66872;63.142;14.482;2023-05-13T11:50:16;1.40;;;1.30;;
16531;SDS011;66872;63.142;14.482;2023-05-13T11:52:52;1.50;;;1.40;;
16531;SDS011;66872;63.142;14.482;2023-05-13T11:55:26;1.40;;;1.30;;
16531;SDS011;66872;63.142;14.482;2023-05-13T11:57:55;1.27;;;1.20;;
16531;SDS011;66872;63.142;14.482;2023-05-13T12:02:51;1.87;;;1.30;;
16531;SDS011;66872;63.142;14.482;2023-05-13T12:05:17;1.60;;;1.50;;
16531;SDS011;66872;63.142;14.482;2023-05-13T12:07:43;1.23;;;1.13;;
16531;SDS011;66872;63.142;14.482;2023-05-13T12:10:10;1.53;;;1.43;;
16531;SDS011;66872;63.142;14.482;2023-05-13T12:12:40;2.20;;;1.60;;
16531;SDS011;66872;63.142;14.482;2023-05-13T12:15:08;2.40;;;1.67;;
16531;SDS011;66872;63.142;14.482;2023-05-13T12:17:36;3.43;;;1.80;;
16531;SDS011;66872;63.142;14.482;2023-05-13T12:28:15;3.73;;;1.93;;
16531;SDS011;66872;63.142;14.482;2023-05-13T12:30:48;6.03;;;2.27;;
16531;SDS011;66872;63.142;14.482;2023-05-13T12:33:25;3.17;;;1.90;;
16531;SDS011;66872;63.142;14.482;2023-05-13T12:38:39;4.50;;;2.03;;
16531;SDS011;66872;63.142;14.482;2023-05-13T12:41:17;2.90;;;2.10;;
16531;SDS011;66872;63.142;14.482;2023-05-13T12:43:42;2.17;;;1.90;;
16531;SDS011;66872;63.142;14.482;2023-05-13T12:46:08;3.77;;;2.20;;
16531;SDS011;66872;63.142;14.482;2023-05-13T12:48:35;4.50;;;2.30;;
16531;SDS011;66872;63.142;14.482;2023-05-13T12:51:01;2.30;;;2.10;;
16531;SDS011;66872;63.142;14.482;2023-05-13T12:53:27;3.70;;;2.30;;
16531;SDS011;66872;63.142;14.482;2023-05-13T12:55:53;2.90;;;2.20;;
16531;SDS011;66872;63.142;14.482;2023-05-13T12:58:19;3.10;;;2.20;;
16531;SDS011;66872;63.142;14.482;2023-05-13T13:00:44;2.83;;;2.30;;
16531;SDS011;66872;63.142;14.482;2023-05-13T13:03:10;2.57;;;2.07;;
16531;SDS011;66872;63.142;14.482;2023-05-13T13:05:36;2.93;;;2.10;;
16531;SDS011;66872;63.142;14.482;2023-05-13T13:08:02;5.00;;;2.10;;
16531;SDS011;66872;63.142;14.482;2023-05-13T13:10:29;2.77;;;2.10;;
16531;SDS011;66872;63.142;14.482;2023-05-13T13:12:55;3.83;;;2.03;;
16531;SDS011;66872;63.142;14.482;2023-05-13T13:15:20;4.07;;;2.20;;
16531;SDS011;66872;63.142;14.482;2023-05-13T13:17:46;2.97;;;2.10;;
16531;SDS011;66872;63.142;14.482;2023-05-13T13:20:12;2.43;;;2.13;;
16531;SDS011;66872;63.142;14.482;2023-05-13T13:22:38;3.93;;;2.20;;
16531;SDS011;66872;63.142;14.482;2023-05-13T13:25:04;2.37;;;2.13;;
16531;SDS011;66872;63.142;14.482;2023-05-13T13:27:30;2.27;;;2.10;;
16531;SDS011;66872;63.142;14.482;2023-05-13T13:29:57;2.67;;;2.20;;
16531;SDS011;66872;63.142;14.482;2023-05-13T13:32:22;3.55;;;2.20;;
16531;SDS011;66872;63.142;14.482;2023-05-13T13:34:48;2.60;;;2.40;;
16531;SDS011;66872;63.142;14.482;2023-05-13T13:37:14;2.50;;;2.30;;
16531;SDS011;66872;63.142;14.482;2023-05-13T13:39:39;3.17;;;2.27;;
16531;SDS011;66872;63.142;14.482;2023-05-13T13:42:05;3.57;;;2.30;;
16531;SDS011;66872;63.142;14.482;2023-05-13T13:44:31;2.50;;;2.30;;
16531;SDS011;66872;63.142;14.482;2023-05-13T13:46:57;2.70;;;2.30;;
16531;SDS011;66872;63.142;14.482;2023-05-13T13:49:23;2.77;;;2.10;;
16531;SDS011;66872;63.142;14.482;2023-05-13T13:51:50;3.13;;;2.10;;
16531;SDS011;66872;63.142;14.482;2023-05-13T13:54:16;8.93;;;3.00;;
16531;SDS011;66872;63.142;14.482;2023-05-13T13:56:42;17.43;;;3.40;;
16531;SDS011;66872;63.142;14.482;2023-05-13T13:59:07;20.80;;;3.50;;
16531;SDS011;66872;63.142;14.482;2023-05-13T14:01:33;26.57;;;4.77;;
16531;SDS011;66872;63.142;14.482;2023-05-13T14:04:09;23.83;;;3.70;;
16531;SDS011;66872;63.142;14.482;2023-05-13T14:06:35;41.40;;;5.30;;
16531;SDS011;66872;63.142;14.482;2023-05-13T14:09:01;18.17;;;3.50;;
16531;SDS011;66872;63.142;14.482;2023-05-13T14:11:27;24.57;;;3.60;;
16531;SDS011;66872;63.142;14.482;2023-05-13T14:13:53;21.60;;;4.30;;
16531;SDS011;66872;63.142;14.482;2023-05-13T14:16:19;17.23;;;3.80;;
16531;SDS011;66872;63.142;14.482;2023-05-13T14:18:44;22.60;;;4.30;;
16531;SDS011;66872;63.142;14.482;2023-05-13T14:21:10;19.00;;;3.73;;
16531;SDS011;66872;63.142;14.482;2023-05-13T14:23:36;13.43;;;3.30;;
16531;SDS011;66872;63.142;14.482;2023-05-13T14:26:02;15.33;;;4.10;;
16531;SDS011;66872;63.142;14.482;2023-05-13T14:28:28;18.43;;;3.87;;
16531;SDS011;66872;63.142;14.482;2023-05-13T14:30:53;12.43;;;3.33;;
16531;SDS011;66872;63.142;14.482;2023-05-13T14:33:19;14.90;;;3.80;;
16531;SDS011;66872;63.142;14.482;2023-05-13T14:35:45;13.53;;;3.13;;
16531;SDS011;66872;63.142;14.482;2023-05-13T14:38:10;9.00;;;3.20;;
16531;SDS011;66872;63.142;14.482;2023-05-13T14:40:37;12.67;;;3.63;;
16531;SDS011;66872;63.142;14.482;2023-05-13T14:43:03;9.50;;;3.37;;
16531;SDS011;66872;63.142;14.482;2023-05-13T14:45:28;11.77;;;3.90;;
16531;SDS011;66872;63.142;14.482;2023-05-13T14:47:54;7.37;;;3.07;;
16531;SDS011;66872;63.142;14.482;2023-05-13T14:50:20;15.60;;;3.67;;
16531;SDS011;66872;63.142;14.482;2023-05-13T14:52:46;12.70;;;3.50;;
16531;SDS011;66872;63.142;14.482;2023-05-13T14:55:11;12.90;;;3.50;;
16531;SDS011;66872;63.142;14.482;2023-05-13T14:57:37;8.70;;;3.10;;
16531;SDS011;66872;63.142;14.482;2023-05-13T15:00:03;13.40;;;3.43;;
16531;SDS011;66872;63.142;14.482;2023-05-13T15:02:29;9.93;;;3.30;;
16531;SDS011;66872;63.142;14.482;2023-05-13T15:04:55;10.90;;;3.90;;
16531;SDS011;66872;63.142;14.482;2023-05-13T15:07:21;9.17;;;3.40;;
16531;SDS011;66872;63.142;14.482;2023-05-13T15:09:46;10.70;;;2.93;;